Time;durP1;ratioP1;P1;durP2;ratioP2;P2;SDS_P1;SDS_P2;PMS_P1;PMS_P2;Temp;Humidity;BMP_temperature;BMP_pressure;BME280_temperature;BME280_humidity;BME280_pressure;Samples;Min_cycle;Max_cycle;Signal;HPM_P1;HPM_P2
2024/01/17 00:00:49;;;;;;;31.77;18.52;;;;;;;-2.08;100.00;95353.00;4984630;28;20451;-70
2024/01/17 00:03:14;;;;;;;37.65;19.63;;;;;;;-2.09;100.00;95349.50;4981352;28;20038;-71
2024/01/17 00:05:40;;;;;;;30.23;16.88;;;;;;;-2.03;100.00;95350.16;4982671;28;20097;-72
2024/01/17 00:08:05;;;;;;;35.35;18.52;;;;;;;-2.10;100.00;95345.25;4979684;28;20046;-71
2024/01/17 00:10:31;;;;;;;34.55;19.00;;;;;;;-2.09;100.00;95338.00;4984507;28;20658;-71
2024/01/17 00:12:56;;;;;;;31.80;19.20;;;;;;;-2.11;100.00;95332.94;4981319;28;20046;-70
2024/01/17 00:15:22;;;;;;;34.92;19.10;;;;;;;-2.11;100.00;95327.56;4979518;28;21896;-70
2024/01/17 00:17:48;;;;;;;32.60;18.92;;;;;;;-2.04;100.00;95335.91;4982785;28;20050;-70
2024/01/17 00:20:13;;;;;;;40.67;20.65;;;;;;;-2.11;100.00;95330.25;4980566;28;20108;-69
2024/01/17 00:22:38;;;;;;;37.72;19.25;;;;;;;-2.13;100.00;95329.78;4983532;28;20153;-71
2024/01/17 00:25:06;;;;;;;40.67;20.75;;;;;;;-2.12;100.00;95326.00;4976224;28;20046;-70
2024/01/17 00:27:31;;;;;;;40.47;20.95;;;;;;;-2.10;100.00;95320.34;4982270;28;20050;-72
2024/01/17 00:29:57;;;;;;;35.40;19.90;;;;;;;-2.12;100.00;95321.44;4980993;28;20543;-71
2024/01/17 00:32:26;;;;;;;37.85;20.70;;;;;;;-2.09;100.00;95321.88;4982070;28;20826;-70
2024/01/17 00:34:51;;;;;;;35.28;19.83;;;;;;;-2.01;100.00;95316.50;4980236;28;20050;-70
2024/01/17 00:37:17;;;;;;;35.13;19.63;;;;;;;-1.99;100.00;95321.56;4975858;28;20070;-71
2024/01/17 00:39:43;;;;;;;37.50;19.20;;;;;;;-2.01;100.00;95308.47;4982045;28;20043;-70
2024/01/17 00:42:08;;;;;;;32.83;18.00;;;;;;;-1.95;100.00;95304.47;4976356;28;20089;-71
2024/01/17 00:44:38;;;;;;;36.90;19.92;;;;;;;-1.92;100.00;95303.06;4981722;28;20394;-72
2024/01/17 00:47:03;;;;;;;;;;;;;;;-1.85;100.00;95287.25;4977771;28;20069;-71
2024/01/17 00:49:29;;;;;;;31.65;17.85;;;;;;;-1.79;100.00;95302.06;4978107;28;20588;-72
2024/01/17 00:51:54;;;;;;;33.95;18.85;;;;;;;-1.69;100.00;95300.13;4983683;28;20100;-72
2024/01/17 00:54:19;;;;;;;32.25;19.10;;;;;;;-1.70;100.00;95291.31;4978180;28;20038;-72
2024/01/17 00:56:45;;;;;;;35.53;18.33;;;;;;;-1.51;100.00;95293.59;4981569;28;20049;-72
2024/01/17 00:59:10;;;;;;;35.83;19.08;;;;;;;-1.31;100.00;95283.25;4974526;28;20141;-71
2024/01/17 01:01:36;;;;;;;30.65;17.40;;;;;;;-1.31;100.00;95273.28;4982871;28;20042;-72
2024/01/17 01:04:02;;;;;;;30.52;17.65;;;;;;;-1.31;100.00;95281.34;4980257;28;20077;-71
2024/01/17 01:06:27;;;;;;;28.63;17.85;;;;;;;-1.56;100.00;95273.09;4974019;28;20801;-71
2024/01/17 01:08:52;;;;;;;29.27;17.17;;;;;;;-1.63;100.00;95277.38;4980986;28;20054;-71
2024/01/17 01:11:18;;;;;;;34.45;19.08;;;;;;;-1.62;100.00;95278.94;4977138;28;20034;-71
2024/01/17 01:13:43;;;;;;;30.05;17.88;;;;;;;-1.62;100.00;95269.00;4979455;28;20057;-71
2024/01/17 01:16:10;;;;;;;39.38;19.02;;;;;;;-1.58;100.00;95269.94;4976196;28;20046;-71
2024/01/17 01:18:35;;;;;;;28.95;17.25;;;;;;;-1.44;100.00;95268.91;4981377;28;20892;-71
2024/01/17 01:21:01;;;;;;;28.25;17.42;;;;;;;-1.36;100.00;95258.13;4980926;28;20089;-70
2024/01/17 01:23:27;;;;;;;30.42;18.75;;;;;;;-1.47;100.00;95254.25;4976120;28;20077;-71
2024/01/17 01:25:53;;;;;;;32.58;19.52;;;;;;;-1.55;100.00;95249.69;4980806;28;20192;-72
2024/01/17 01:28:18;;;;;;;34.50;19.60;;;;;;;-1.65;100.00;95252.78;4977061;28;20125;-70
2024/01/17 01:30:43;;;;;;;30.75;18.77;;;;;;;-1.67;100.00;95253.09;4982298;28;20110;-72
2024/01/17 01:33:09;;;;;;;35.90;20.65;;;;;;;-1.71;100.00;95241.44;4976611;28;20038;-71
2024/01/17 01:35:34;;;;;;;34.95;20.48;;;;;;;-1.68;100.00;95239.97;4981082;28;20058;-71
2024/01/17 01:37:59;;;;;;;35.35;19.35;;;;;;;-1.56;100.00;95243.53;4981456;28;20517;-71
2024/01/17 01:40:25;;;;;;;32.90;17.98;;;;;;;-1.45;100.00;95241.28;4975597;28;20417;-71
2024/01/17 01:42:50;;;;;;;33.83;19.00;;;;;;;-1.39;100.00;95244.56;4981139;28;20050;-71
2024/01/17 01:45:16;;;;;;;32.85;17.67;;;;;;;-1.41;100.00;95238.72;4990939;28;20396;-72
2024/01/17 01:47:42;;;;;;;29.77;17.02;;;;;;;-1.32;100.00;95228.72;4980595;28;20047;-71
2024/01/17 01:50:09;;;;;;;28.83;17.50;;;;;;;-1.46;100.00;95220.13;4975529;28;20049;-71
2024/01/17 01:52:35;;;;;;;27.80;16.63;;;;;;;-1.54;100.00;95211.00;4979615;28;20097;-71
2024/01/17 01:55:06;;;;;;;31.67;17.90;;;;;;;-1.50;100.00;95211.91;4979147;28;20062;-71
2024/01/17 01:57:35;;;;;;;29.70;17.52;;;;;;;-1.49;100.00;95193.94;4979852;28;20577;-70
2024/01/17 02:00:02;;;;;;;27.63;17.03;;;;;;;-1.18;100.00;95182.78;4980549;28;20042;-71
2024/01/17 02:02:28;;;;;;;25.90;15.60;;;;;;;-1.14;100.00;95181.00;4960290;28;20046;-70
2024/01/17 02:04:53;;;;;;;24.55;15.18;;;;;;;-1.28;100.00;95180.50;4979784;28;20042;-70
2024/01/17 02:07:20;;;;;;;24.33;14.95;;;;;;;-1.36;100.00;95177.53;4974824;28;20054;-72
2024/01/17 02:09:46;;;;;;;36.05;17.33;;;;;;;-1.40;100.00;95181.22;4979920;28;20049;-71
2024/01/17 02:12:11;;;;;;;28.23;16.20;;;;;;;-1.35;100.00;95183.72;4975584;28;20042;-72
2024/01/17 02:14:41;;;;;;;26.52;15.05;;;;;;;-1.26;100.00;95189.00;4980003;28;20039;-72
2024/01/17 02:17:08;;;;;;;24.80;14.20;;;;;;;-1.35;100.00;95179.13;4974982;28;20049;-71
2024/01/17 02:19:33;;;;;;;23.05;13.68;;;;;;;-1.37;100.00;95178.69;4977974;28;20521;-71
2024/01/17 02:21:58;;;;;;;23.98;13.75;;;;;;;-1.19;100.00;95178.53;4980610;28;20046;-71
2024/01/17 02:24:24;;;;;;;23.02;13.07;;;;;;;-1.17;100.00;95182.47;4959650;28;20109;-71
2024/01/17 02:26:50;;;;;;;21.05;12.85;;;;;;;-1.03;100.00;95176.03;4980924;28;20057;-71
2024/01/17 02:29:15;;;;;;;20.35;12.82;;;;;;;-0.84;100.00;95170.97;4976137;28;20085;-71
2024/01/17 02:31:44;;;;;;;20.30;12.25;;;;;;;-0.74;100.00;95172.44;4981038;28;20105;-71
2024/01/17 02:34:10;;;;;;;22.33;12.52;;;;;;;-0.69;100.00;95161.47;4974784;28;20382;-72
2024/01/17 02:36:35;;;;;;;16.77;11.00;;;;;;;-0.59;100.00;95165.69;4980412;28;20561;-72
2024/01/17 02:39:01;;;;;;;21.95;12.27;;;;;;;-0.57;100.00;95160.75;4979438;28;20062;-71
2024/01/17 02:41:26;;;;;;;22.00;12.95;;;;;;;-0.48;100.00;95160.66;4975289;28;20130;-72
2024/01/17 02:43:51;;;;;;;20.73;12.68;;;;;;;-0.50;100.00;95161.00;4981345;28;20350;-72
2024/01/17 02:46:17;;;;;;;20.60;12.10;;;;;;;-0.50;100.00;95147.53;4979257;28;20034;-71
2024/01/17 02:48:42;;;;;;;23.15;12.52;;;;;;;-0.45;100.00;95149.22;4981767;28;20038;-71
2024/01/17 02:51:08;;;;;;;21.35;12.75;;;;;;;-0.48;100.00;95150.69;4977647;28;20268;-72
2024/01/17 02:53:33;;;;;;;22.00;12.80;;;;;;;-0.42;100.00;95146.63;4979350;28;20397;-70
2024/01/17 02:55:58;;;;;;;21.77;12.38;;;;;;;-0.56;100.00;95131.94;4978844;28;20085;-70
2024/01/17 02:58:24;;;;;;;22.95;12.82;;;;;;;-0.51;100.00;95140.56;4975271;28;20069;-71
2024/01/17 03:00:50;;;;;;;21.25;13.25;;;;;;;-0.40;100.00;95133.66;4979334;28;20049;-72
2024/01/17 03:03:16;;;;;;;24.23;14.85;;;;;;;-0.22;100.00;95141.50;4974719;28;20030;-72
2024/01/17 03:05:41;;;;;;;22.05;13.75;;;;;;;-0.26;100.00;95133.31;4983723;28;20047;-72
2024/01/17 03:08:07;;;;;;;26.10;15.43;;;;;;;-0.20;100.00;95133.88;4979220;28;20144;-73
2024/01/17 03:10:32;;;;;;;24.75;15.25;;;;;;;-0.27;100.00;95134.47;4983504;28;20074;-73
2024/01/17 03:12:58;;;;;;;25.77;15.88;;;;;;;-0.34;100.00;95123.47;4982250;28;20046;-70
2024/01/17 03:15:24;;;;;;;27.00;15.45;;;;;;;-0.30;100.00;95135.13;4979193;28;20592;-73
2024/01/17 03:17:52;;;;;;;26.92;15.63;;;;;;;-0.24;100.00;95133.00;4983846;28;20042;-72
2024/01/17 03:20:17;;;;;;;29.42;15.82;;;;;;;-0.21;100.00;95118.88;4978279;28;20046;-72
2024/01/17 03:22:42;;;;;;;28.45;16.60;;;;;;;-0.16;100.00;95124.03;4984182;28;20824;-73
2024/01/17 03:25:08;;;;;;;25.35;16.55;;;;;;;-0.20;100.00;95133.88;4977632;28;20042;-72
2024/01/17 03:27:35;;;;;;;33.63;18.40;;;;;;;-0.20;100.00;95132.00;4983862;28;20050;-73
2024/01/17 03:30:02;;;;;;;31.42;19.33;;;;;;;-0.21;100.00;95126.94;4986007;28;20108;-72
2024/01/17 03:32:27;;;;;;;33.35;19.42;;;;;;;-0.22;100.00;95131.56;4960369;28;20386;-72
2024/01/17 03:34:55;;;;;;;33.42;19.13;;;;;;;-0.15;100.00;95138.28;4978314;28;20034;-72
2024/01/17 03:37:21;;;;;;;35.15;18.83;;;;;;;-0.25;100.00;95128.75;4977939;28;20045;-72
2024/01/17 03:39:47;;;;;;;33.55;20.35;;;;;;;-0.26;100.00;95133.31;4981634;28;20039;-72
2024/01/17 03:42:15;;;;;;;37.83;20.52;;;;;;;-0.26;100.00;95125.25;4978588;28;20484;-73
2024/01/17 03:44:44;;;;;;;31.77;19.15;;;;;;;-0.29;100.00;95119.75;4981634;28;20076;-71
2024/01/17 03:47:10;;;;;;;36.92;20.42;;;;;;;-0.26;100.00;95119.88;4977577;28;20070;-72
2024/01/17 03:49:36;;;;;;;37.80;20.10;;;;;;;-0.26;100.00;95116.41;4978900;28;20049;-71
2024/01/17 03:52:02;;;;;;;37.50;20.88;;;;;;;-0.36;100.00;95119.53;4981810;28;20038;-72
2024/01/17 03:54:27;;;;;;;36.00;20.65;;;;;;;-0.54;100.00;95108.19;4976665;28;20050;-71
2024/01/17 03:56:52;;;;;;;37.58;19.92;;;;;;;-0.56;100.00;95103.13;4981684;28;20707;-71
2024/01/17 03:59:18;;;;;;;33.85;19.40;;;;;;;-0.45;100.00;95100.78;4977529;28;20050;-70
2024/01/17 04:01:44;;;;;;;39.20;22.77;;;;;;;-0.78;100.00;95101.66;4982073;28;20076;-70
2024/01/17 04:04:10;;;;;;;45.17;24.20;;;;;;;-1.15;100.00;95101.53;4977571;28;20042;-70
2024/01/17 04:06:35;;;;;;;49.58;26.52;;;;;;;-1.31;100.00;95081.78;4982830;28;20149;-70
2024/01/17 04:09:01;;;;;;;47.65;26.88;;;;;;;-1.43;100.00;95069.84;4981499;28;20128;-70
2024/01/17 04:11:27;;;;;;;49.33;27.63;;;;;;;-1.34;100.00;95064.41;4978715;28;20042;-70
2024/01/17 04:13:52;;;;;;;51.83;28.98;;;;;;;-1.39;100.00;95067.28;4982240;28;20130;-71
2024/01/17 04:16:18;;;;;;;56.35;29.80;;;;;;;-1.42;100.00;95062.59;4959510;28;20050;-70
2024/01/17 04:18:44;;;;;;;54.97;28.63;;;;;;;-1.37;100.00;95063.19;4981972;28;20629;-70
2024/01/17 04:21:16;;;;;;;59.53;29.98;;;;;;;-1.30;100.00;95067.22;4977091;28;20042;-70
2024/01/17 04:23:41;;;;;;;56.03;29.52;;;;;;;-1.30;100.00;95051.09;4982458;28;20429;-70
2024/01/17 04:26:06;;;;;;;61.13;30.77;;;;;;;-1.38;100.00;95042.81;4976693;28;20038;-71
2024/01/17 04:28:32;;;;;;;55.40;30.42;;;;;;;-1.39;100.00;95033.19;4980671;28;20050;-71
2024/01/17 04:30:57;;;;;;;59.70;31.05;;;;;;;-1.45;100.00;95023.75;4982107;28;20465;-71
2024/01/17 04:33:23;;;;;;;69.25;32.67;;;;;;;-1.43;100.00;95018.06;4974785;28;20050;-71
2024/01/17 04:35:49;;;;;;;67.40;33.13;;;;;;;-1.36;100.00;95015.63;4982407;28;20042;-71
2024/01/17 04:38:14;;;;;;;62.22;31.15;;;;;;;-1.31;100.00;95007.34;4975196;28;20525;-73
2024/01/17 04:40:40;;;;;;;53.22;29.95;;;;;;;-1.31;100.00;95007.34;4981794;28;20052;-72
2024/01/17 04:43:05;;;;;;;53.30;28.25;;;;;;;-1.35;100.00;95001.88;4976431;28;20047;-73
2024/01/17 04:45:30;;;;;;;51.58;27.48;;;;;;;-1.35;100.00;95017.97;4982007;28;20038;-72
2024/01/17 04:47:56;;;;;;;40.22;23.50;;;;;;;-1.33;100.00;95012.28;4976311;28;20042;-73
2024/01/17 04:50:21;;;;;;;42.05;23.17;;;;;;;-1.28;100.00;95012.03;4974402;28;20280;-73
2024/01/17 04:52:47;;;;;;;37.83;20.70;;;;;;;-1.22;100.00;95015.31;4979691;28;20054;-72
2024/01/17 04:55:15;;;;;;;40.58;19.83;;;;;;;-1.14;100.00;95013.66;4976070;28;20121;-72
2024/01/17 04:57:40;;;;;;;39.35;21.13;;;;;;;-0.96;100.00;95001.59;4982148;28;20065;-72
2024/01/17 05:00:08;;;;;;;39.88;20.20;;;;;;;-1.11;100.00;95000.34;4974233;28;20050;-72
2024/01/17 05:02:34;;;;;;;34.60;18.33;;;;;;;-1.16;100.00;94995.19;4981027;28;20052;-72
2024/01/17 05:04:59;;;;;;;32.10;17.48;;;;;;;-1.16;100.00;94990.59;4981755;28;20453;-72
2024/01/17 05:07:25;;;;;;;31.80;17.48;;;;;;;-1.20;100.00;94980.84;4977574;28;20074;-72
2024/01/17 05:09:50;;;;;;;35.33;17.80;;;;;;;-1.23;100.00;94978.81;4980883;28;20062;-72
2024/01/17 05:12:15;;;;;;;35.53;19.33;;;;;;;-1.22;100.00;94978.50;4975789;28;20050;-72
2024/01/17 05:14:42;;;;;;;32.08;18.60;;;;;;;-1.23;100.00;94973.44;4981989;28;20437;-72
2024/01/17 05:17:07;;;;;;;33.03;18.58;;;;;;;-1.26;100.00;94968.75;4977195;28;20508;-71
2024/01/17 05:19:33;;;;;;;31.35;16.88;;;;;;;-1.20;100.00;94959.38;4978674;28;20046;-71
2024/01/17 05:21:58;;;;;;;28.92;17.45;;;;;;;-1.22;100.00;94961.59;4980270;28;20093;-71
2024/01/17 05:24:23;;;;;;;27.52;16.23;;;;;;;-1.08;100.00;94956.69;4979256;28;20511;-72
2024/01/17 05:26:49;;;;;;;33.63;17.10;;;;;;;-1.08;100.00;94961.28;4985246;28;20053;-71
2024/01/17 05:29:14;;;;;;;32.67;18.23;;;;;;;-1.12;100.00;94966.53;4995823;28;20085;-72
2024/01/17 05:31:39;;;;;;;32.17;17.52;;;;;;;-1.17;100.00;94956.78;4985023;28;20038;-72
2024/01/17 05:34:05;;;;;;;32.05;18.17;;;;;;;-1.18;100.00;94957.91;4977741;28;20057;-70
2024/01/17 05:36:30;;;;;;;37.40;19.48;;;;;;;-1.20;100.00;94946.72;4979415;28;20116;-71
2024/01/17 05:38:55;;;;;;;31.67;19.17;;;;;;;-1.21;100.00;94945.13;4995759;28;20046;-71
2024/01/17 05:41:21;;;;;;;31.05;17.85;;;;;;;-1.17;100.00;94943.38;4976570;28;20048;-71
2024/01/17 05:43:46;;;;;;;36.47;19.38;;;;;;;-1.17;100.00;94946.03;4981421;28;20502;-71
2024/01/17 05:46:11;;;;;;;40.08;20.63;;;;;;;-1.17;100.00;94942.56;4975269;28;20084;-72
2024/01/17 05:48:37;;;;;;;34.67;18.38;;;;;;;-1.13;100.00;94951.53;4979301;28;20042;-71
2024/01/17 05:51:02;;;;;;;38.40;20.48;;;;;;;-1.19;100.00;94921.41;4977241;28;20069;-72
2024/01/17 05:53:28;;;;;;;40.83;21.67;;;;;;;-1.16;100.00;94919.97;4970212;28;20416;-73
2024/01/17 05:55:53;;;;;;;38.75;21.55;;;;;;;-1.03;100.00;94918.84;4979176;28;20049;-72
2024/01/17 05:58:19;;;;;;;38.17;22.25;;;;;;;-1.09;100.00;94901.38;4974619;28;20074;-72
2024/01/17 06:00:45;;;;;;;37.38;21.35;;;;;;;-0.98;100.00;94899.81;4978898;28;20042;-72
2024/01/17 06:03:10;;;;;;;43.03;21.67;;;;;;;-0.85;100.00;94902.50;4972591;28;20405;-72
2024/01/17 06:05:36;;;;;;;39.45;21.40;;;;;;;-0.74;100.00;94898.22;4981046;28;20045;-72
2024/01/17 06:08:02;;;;;;;38.20;21.20;;;;;;;-0.87;100.00;94902.06;4977775;28;20053;-70
2024/01/17 06:10:29;;;;;;;40.40;22.48;;;;;;;-0.96;100.00;94886.81;4975439;28;20042;-71
2024/01/17 06:12:54;;;;;;;39.78;22.15;;;;;;;-0.83;100.00;94894.88;4979625;28;20039;-72
2024/01/17 06:15:20;;;;;;;39.03;21.92;;;;;;;-0.90;100.00;94892.78;4987710;28;20101;-74
2024/01/17 06:17:45;;;;;;;46.92;23.58;;;;;;;-0.97;100.00;94893.31;4988810;28;20257;-72
2024/01/17 06:20:11;;;;;;;47.28;24.73;;;;;;;-1.07;100.00;94896.44;4973572;28;20070;-71
2024/01/17 06:22:37;;;;;;;49.35;25.45;;;;;;;-1.05;100.00;94890.75;4981183;28;20042;-72
2024/01/17 06:25:06;;;;;;;49.60;27.17;;;;;;;-1.02;100.00;94887.41;4977659;28;20630;-71
2024/01/17 06:27:32;;;;;;;47.10;26.05;;;;;;;-1.05;100.00;94894.22;4980434;28;20042;-71
2024/01/17 06:29:57;;;;;;;50.35;26.58;;;;;;;-1.04;100.00;94889.63;4978020;28;20527;-71
2024/01/17 06:32:22;;;;;;;48.90;26.48;;;;;;;-1.01;100.00;94875.50;4972261;28;20417;-71
2024/01/17 06:34:48;;;;;;;51.88;25.95;;;;;;;-0.95;100.00;94879.56;4979393;28;20046;-71
2024/01/17 06:37:13;;;;;;;47.97;25.73;;;;;;;-0.91;100.00;94875.06;4975282;28;20047;-72
2024/01/17 06:39:39;;;;;;;53.15;26.80;;;;;;;-0.94;100.00;94864.97;4978705;28;20121;-73
2024/01/17 06:42:05;;;;;;;47.10;27.40;;;;;;;-1.00;100.00;94866.34;4989836;28;20050;-71
2024/01/17 06:44:30;;;;;;;56.17;27.83;;;;;;;-1.06;100.00;94856.91;4978776;28;20068;-72
2024/01/17 06:46:56;;;;;;;53.40;27.70;;;;;;;-1.06;100.00;94849.66;4980579;28;20038;-70
2024/01/17 06:49:22;;;;;;;57.67;27.55;;;;;;;-0.97;100.00;94844.19;4974983;28;20170;-72
2024/01/17 06:51:47;;;;;;;66.78;32.92;;;;;;;-0.99;100.00;94838.31;4979520;28;20498;-72
2024/01/17 06:54:13;;;;;;;65.65;31.38;;;;;;;-0.96;100.00;94833.06;4975193;28;20038;-72
2024/01/17 06:56:38;;;;;;;58.78;30.27;;;;;;;-0.92;100.00;94829.72;4979474;28;20038;-73
2024/01/17 06:59:04;;;;;;;60.15;30.85;;;;;;;-0.92;100.00;94829.72;4959826;28;20042;-75
2024/01/17 07:01:30;;;;;;;60.08;28.55;;;;;;;-0.85;100.00;94821.84;4980859;28;20390;-75
2024/01/17 07:03:55;;;;;;;62.78;31.45;;;;;;;-0.78;100.00;94830.13;4978837;28;20076;-72
2024/01/17 07:06:20;;;;;;;70.53;33.75;;;;;;;-0.81;100.00;94820.06;4975379;28;20045;-73
2024/01/17 07:08:46;;;;;;;75.20;32.88;;;;;;;-0.77;100.00;94818.25;4978886;28;20057;-72
2024/01/17 07:11:12;;;;;;;120.25;56.05;;;;;;;-0.88;100.00;94812.56;4973420;28;20043;-73
2024/01/17 07:13:41;;;;;;;77.82;36.72;;;;;;;-0.91;100.00;94802.50;4978851;28;20101;-73
2024/01/17 07:16:06;;;;;;;78.60;36.05;;;;;;;-0.77;100.00;94816.34;4958475;28;20047;-72
2024/01/17 07:18:33;;;;;;;76.78;35.63;;;;;;;-0.65;100.00;94810.19;4979295;28;20038;-72
2024/01/17 07:21:04;;;;;;;83.47;35.60;;;;;;;-0.56;100.00;94818.09;4962086;28;20061;-72
2024/01/17 07:23:29;;;;;;;77.18;34.85;;;;;;;-0.39;100.00;94800.91;4976825;28;20041;-71
2024/01/17 07:25:54;;;;;;;75.35;34.38;;;;;;;-0.31;100.00;94791.88;4978949;28;20034;-71
2024/01/17 07:28:20;;;;;;;76.03;35.47;;;;;;;-0.38;100.00;94783.63;4972020;28;20046;-70
2024/01/17 07:30:45;;;;;;;75.47;38.42;;;;;;;-0.41;100.00;94785.09;4979543;28;20498;-70
2024/01/17 07:33:11;;;;;;;64.07;33.67;;;;;;;-0.18;100.00;94783.75;4970276;28;20129;-70
2024/01/17 07:35:36;;;;;;;66.45;34.53;;;;;;;-0.09;100.00;94769.03;4985104;28;20042;-71
2024/01/17 07:38:02;;;;;;;61.60;31.17;;;;;;;0.01;100.00;94762.34;4978819;28;20040;-71
2024/01/17 07:40:28;;;;;;;62.83;32.40;;;;;;;0.17;100.00;94762.34;4977988;28;20038;-70
2024/01/17 07:42:53;;;;;;;55.50;30.20;;;;;;;0.13;100.00;94758.81;4978000;28;20097;-71
2024/01/17 07:45:20;;;;;;;64.82;31.42;;;;;;;-0.27;100.00;94744.34;4981368;28;20194;-74
2024/01/17 07:47:45;;;;;;;57.85;29.95;;;;;;;-0.23;100.00;94731.00;4996913;28;20090;-74
2024/01/17 07:50:11;;;;;;;53.47;28.90;;;;;;;-0.13;100.00;94735.06;4975349;28;20095;-73
2024/01/17 07:52:38;;;;;;;48.25;26.27;;;;;;;-0.21;100.00;94699.91;4964962;28;20045;-73
2024/01/17 07:55:04;;;;;;;55.75;29.17;;;;;;;-0.46;100.00;94696.59;4981195;28;20046;-71
2024/01/17 07:57:30;;;;;;;51.15;26.45;;;;;;;-0.47;100.00;94684.28;4983984;28;20617;-72
2024/01/17 07:59:56;;;;;;;56.40;25.58;;;;;;;-0.50;100.00;94679.56;4982451;28;20038;-73
2024/01/17 08:02:21;;;;;;;64.20;29.00;;;;;;;-0.53;100.00;94655.28;4977459;28;20649;-70
2024/01/17 08:04:49;;;;;;;54.33;25.88;;;;;;;-0.51;100.00;94661.09;4992131;28;20038;-72
2024/01/17 08:07:14;;;;;;;60.90;27.25;;;;;;;-0.48;100.00;94655.81;4996437;28;20042;-72
2024/01/17 08:09:40;;;;;;;50.75;23.38;;;;;;;-0.39;100.00;94658.34;4995297;28;20057;-71
2024/01/17 08:12:06;;;;;;;46.25;21.55;;;;;;;-0.36;100.00;94651.47;4987336;28;20050;-71
2024/01/17 08:14:32;;;;;;;50.40;23.60;;;;;;;-0.21;100.00;94654.16;4987121;28;20130;-71
2024/01/17 08:16:58;;;;;;;50.83;24.50;;;;;;;-0.13;100.00;94667.78;4981586;28;20137;-70
2024/01/17 08:19:24;;;;;;;43.30;21.80;;;;;;;-0.13;100.00;94647.03;4977687;28;20050;-70
2024/01/17 08:21:51;;;;;;;46.40;23.92;;;;;;;-0.20;100.00;94657.63;4982029;28;20050;-70
2024/01/17 08:24:16;;;;;;;42.22;20.35;;;;;;;-0.20;100.00;94653.06;4980022;28;20038;-73
2024/01/17 08:26:42;;;;;;;41.72;21.63;;;;;;;-0.23;100.00;94634.91;4986507;28;20049;-71
2024/01/17 08:29:08;;;;;;;44.67;22.40;;;;;;;-0.21;100.00;94646.09;4978598;28;20053;-71
2024/01/17 08:31:33;;;;;;;38.80;21.63;;;;;;;-0.13;100.00;94630.13;4974312;28;20038;-71
2024/01/17 08:34:00;;;;;;;49.45;26.15;;;;;;;-0.15;100.00;94622.41;4986112;28;20510;-71
2024/01/17 08:36:30;;;;;;;39.83;20.27;;;;;;;-0.03;100.00;94627.69;4978648;28;20054;-70
2024/01/17 08:38:56;;;;;;;40.35;21.48;;;;;;;-0.14;100.00;94602.44;4984927;28;20038;-71
2024/01/17 08:41:21;;;;;;;60.13;30.48;;;;;;;-0.12;100.00;94629.00;4977681;28;20078;-71
2024/01/17 08:43:47;;;;;;;44.75;23.00;;;;;;;-0.01;100.00;94608.50;4983084;28;20085;-73
2024/01/17 08:46:13;;;;;;;30.95;16.63;;;;;;;-0.06;100.00;94600.69;4977218;28;20146;-73
2024/01/17 08:48:40;;;;;;;32.72;16.50;;;;;;;0.09;100.00;94612.56;4982855;28;20784;-74
2024/01/17 08:51:05;;;;;;;33.22;16.70;;;;;;;0.12;100.00;94595.72;4977849;28;20520;-73
2024/01/17 08:53:31;;;;;;;39.10;21.40;;;;;;;-0.09;100.00;94575.28;4982791;28;20062;-72
2024/01/17 08:55:58;;;;;;;47.63;21.90;;;;;;;-0.07;100.00;94585.69;4982255;28;20038;-72
2024/01/17 08:58:26;;;;;;;37.17;17.83;;;;;;;0.01;100.00;94583.94;4977778;28;20111;-71
2024/01/17 09:00:51;;;;;;;41.72;18.88;;;;;;;0.08;100.00;94584.09;4982224;28;20038;-71
2024/01/17 09:03:17;;;;;;;49.00;25.55;;;;;;;0.11;100.00;94573.41;4974880;28;20477;-70
2024/01/17 09:05:42;;;;;;;42.08;23.92;;;;;;;0.17;100.00;94579.28;4964613;28;20049;-71
2024/01/17 09:08:08;;;;;;;32.80;19.17;;;;;;;0.27;100.00;94594.09;4978958;28;20054;-71
2024/01/17 09:10:34;;;;;;;33.42;17.15;;;;;;;0.39;100.00;94588.59;4980199;28;20069;-72
2024/01/17 09:12:59;;;;;;;28.10;15.85;;;;;;;0.52;100.00;94600.03;4979984;28;20053;-73
2024/01/17 09:15:25;;;;;;;63.80;23.88;;;;;;;0.57;100.00;94584.34;4976141;28;20049;-70
2024/01/17 09:17:50;;;;;;;27.90;14.20;;;;;;;0.43;100.00;94567.91;4981748;28;20062;-72
2024/01/17 09:20:16;;;;;;;27.45;14.65;;;;;;;0.46;100.00;94580.66;4976536;28;20040;-72
2024/01/17 09:22:41;;;;;;;26.13;16.35;;;;;;;0.53;100.00;94577.34;4981956;28;20031;-73
2024/01/17 09:25:08;;;;;;;21.02;11.98;;;;;;;0.61;100.00;94567.50;4985750;28;20042;-73
2024/01/17 09:27:34;;;;;;;22.35;11.95;;;;;;;0.72;100.00;94568.47;4980049;28;20047;-73
2024/01/17 09:30:00;;;;;;;32.20;23.90;;;;;;;0.67;100.00;94556.09;4976257;28;20122;-72
2024/01/17 09:32:25;;;;;;;26.58;16.15;;;;;;;0.64;100.00;94559.47;4975284;28;20046;-73
2024/01/17 09:34:51;;;;;;;26.40;16.58;;;;;;;0.73;100.00;94564.66;4990326;28;20088;-72
2024/01/17 09:37:17;;;;;;;24.80;15.27;;;;;;;0.86;100.00;94563.38;4976507;28;20049;-72
2024/01/17 09:39:43;;;;;;;25.00;13.27;;;;;;;1.08;100.00;94566.44;4979532;28;20034;-73
2024/01/17 09:42:10;;;;;;;42.03;17.95;;;;;;;1.19;100.00;94564.75;4992749;28;20077;-73
2024/01/17 09:44:36;;;;;;;65.18;23.98;;;;;;;1.24;100.00;94574.44;4996980;28;20061;-72
2024/01/17 09:47:04;;;;;;;48.08;20.73;;;;;;;1.22;100.00;94576.72;4979306;28;20038;-71
2024/01/17 09:49:31;;;;;;;40.65;20.10;;;;;;;1.13;100.00;94550.00;4979357;28;20052;-72
2024/01/17 09:51:56;;;;;;;41.17;17.35;;;;;;;1.10;100.00;94543.41;4979996;28;20060;-72
2024/01/17 09:54:25;;;;;;;22.42;11.45;;;;;;;0.98;100.00;94550.88;4974282;28;20050;-71
2024/01/17 09:56:53;;;;;;;41.95;18.83;;;;;;;1.12;100.00;94546.53;4978846;28;20046;-72
2024/01/17 09:59:25;;;;;;;31.33;17.05;;;;;;;1.08;100.00;94528.72;4975966;28;20078;-72
2024/01/17 10:01:50;;;;;;;29.60;19.45;;;;;;;1.08;100.00;94526.00;4980435;28;20528;-72
2024/01/17 10:04:17;;;;;;;20.88;11.10;;;;;;;0.96;100.00;94513.50;4991510;28;20075;-72
2024/01/17 10:06:43;;;;;;;15.88;9.23;;;;;;;0.95;100.00;94511.94;4979511;28;20125;-73
2024/01/17 10:09:09;;;;;;;29.30;20.17;;;;;;;0.98;100.00;94503.13;4976713;28;20739;-73
2024/01/17 10:11:35;;;;;;;23.52;16.13;;;;;;;1.09;100.00;94500.63;4982642;28;20045;-72
2024/01/17 10:14:01;;;;;;;26.92;10.35;;;;;;;1.22;100.00;94493.13;4983225;28;20134;-72
2024/01/17 10:16:28;;;;;;;22.15;11.27;;;;;;;1.25;100.00;94477.00;4975183;28;20423;-72
2024/01/17 10:18:53;;;;;;;16.10;10.07;;;;;;;1.28;100.00;94479.00;4980984;28;20038;-72
2024/01/17 10:21:19;;;;;;;17.67;9.82;;;;;;;1.38;100.00;94476.81;4977938;28;20049;-73
2024/01/17 10:23:45;;;;;;;19.73;10.70;;;;;;;1.62;100.00;94475.63;4983550;28;20058;-73
2024/01/17 10:26:11;;;;;;;21.77;11.82;;;;;;;1.80;100.00;94481.28;4978558;28;20039;-72
2024/01/17 10:28:36;;;;;;;20.52;13.18;;;;;;;1.99;100.00;94466.91;4994556;28;20042;-73
2024/01/17 10:31:04;;;;;;;20.98;12.88;;;;;;;2.19;100.00;94462.91;4993939;28;20082;-72
2024/01/17 10:33:30;;;;;;;22.58;13.93;;;;;;;2.41;100.00;94450.44;4994590;28;20053;-72
2024/01/17 10:35:56;;;;;;;22.92;12.93;;;;;;;2.50;100.00;94442.03;4979322;28;20658;-72
2024/01/17 10:38:21;;;;;;;16.05;11.32;;;;;;;2.61;100.00;94447.56;4975895;28;20049;-73
2024/01/17 10:41:02;;;;;;;15.32;10.27;;;;;;;2.77;100.00;94433.81;4961716;28;20678;-73
2024/01/17 10:43:27;;;;;;;16.35;11.10;;;;;;;2.90;100.00;94435.13;4974215;28;20112;-72
2024/01/17 10:45:55;;;;;;;14.82;10.32;;;;;;;2.74;100.00;94443.44;4995859;28;20121;-74
2024/01/17 10:48:22;;;;;;;16.13;11.40;;;;;;;2.63;100.00;94434.47;4988454;28;20396;-73
2024/01/17 10:50:49;;;;;;;21.25;13.05;;;;;;;2.68;100.00;94439.50;4992238;28;20046;-74
2024/01/17 10:53:18;;;;;;;20.98;13.88;;;;;;;2.70;100.00;94442.63;4983251;28;20112;-73
2024/01/17 10:55:47;;;;;;;25.48;15.48;;;;;;;2.55;100.00;94439.00;4962929;28;20034;-72
2024/01/17 10:58:14;;;;;;;26.92;16.88;;;;;;;2.62;100.00;94444.47;4975918;28;20047;-73
2024/01/17 11:00:45;;;;;;;27.60;17.38;;;;;;;2.60;100.00;94446.00;4980308;28;20053;-72
2024/01/17 11:03:20;;;;;;;30.85;18.10;;;;;;;2.59;100.00;94433.63;4975332;28;20054;-72
2024/01/17 11:05:50;;;;;;;30.23;20.02;;;;;;;2.48;100.00;94431.63;4971815;28;20129;-73